KOKK

Kokomo Municipal Airport

Kokomo, Indiana, USA
METAR KOKK 252156Z AUTO 20005KT 10SM SCT085 31/12 A2985 RMK AO2 SLP103 T03110117
Observed Flight Rules
May-25 @ 21:56 UTC (36 minutes ago) Visual Flight Rules
Wind Visibility Clouds
200° at 5 knots 10 miles
  • Scattered at 8,500' AGL
Temperatures Readings
Current 31°C / 88°F
Dewpoint 12°C / 54°F
Humidity 31%
Altimeter 29.85" Hg
Pressure 1010.3 hPa
Elevation 253
METAR KOKK 252156Z AUTO 20005KT 10SM SCT085 31/12 A2985 RMK AO2 SLP103 T03110117
Observed Flight Rules
May-25 @ 21:56 UTC
(36 minutes ago)
VFR
Wind Visibility
200° at 5 knots 10 miles
Clouds
  • Scattered at 8,500' AGL
Temperature Dewpoint
31°C / 88°F 12°C / 54°F
Humidity Altimeter Pressure
31% 29.85" Hg 1010.3 hPa